Time;durP1;ratioP1;P1;durP2;ratioP2;P2;SDS_P1;SDS_P2;PMS_P1;PMS_P2;Temp;Humidity;BMP_temperature;BMP_pressure;BME280_temperature;BME280_humidity;BME280_pressure;Samples;Min_cycle;Max_cycle;Signal;HPM_P1;HPM_P2
2023/04/26 00:00:44;;;;;;;0.20;0.20;;;;;;;12.31;56.31;101954.19;5092592;28;20028;-70
2023/04/26 00:03:11;;;;;;;0.30;0.30;;;;;;;12.19;56.32;101963.09;5073830;28;20395;-71
2023/04/26 00:05:37;;;;;;;0.30;0.30;;;;;;;12.07;56.85;101957.53;5092632;28;20028;-71
2023/04/26 00:08:03;;;;;;;0.28;0.28;;;;;;;11.78;56.49;101966.00;5092568;28;20096;-70
2023/04/26 00:10:29;;;;;;;0.30;0.30;;;;;;;12.49;54.80;101952.72;5092375;28;20031;-71
2023/04/26 00:12:54;;;;;;;46.47;42.55;;;;;;;12.28;55.07;101962.69;5092923;28;20048;-73
2023/04/26 00:15:20;;;;;;;0.20;0.20;;;;;;;12.20;56.11;101959.38;5073972;28;20521;-71
2023/04/26 00:17:46;;;;;;;0.20;0.20;;;;;;;12.16;55.71;101964.38;5087856;28;20122;-71
2023/04/26 00:20:12;;;;;;;0.30;0.30;;;;;;;12.00;56.36;101963.94;5072426;28;20124;-71
2023/04/26 00:22:38;;;;;;;0.20;0.20;;;;;;;12.23;54.86;101967.88;5054150;28;20028;-72
2023/04/26 00:25:04;;;;;;;0.20;0.20;;;;;;;12.06;55.70;101965.81;5072399;28;20024;-71
2023/04/26 00:27:29;;;;;;;0.30;0.30;;;;;;;11.29;56.96;101968.97;5072023;28;20044;-70
2023/04/26 00:29:55;;;;;;;0.20;0.20;;;;;;;11.26;57.89;101961.28;5071986;28;20388;-71
2023/04/26 00:35:44;;;;;;;0.30;0.30;;;;;;;10.14;62.04;101963.59;5082044;28;20506;-71
2023/04/26 00:38:10;;;;;;;0.20;0.20;;;;;;;10.13;61.35;101970.81;5092115;28;20028;-71
2023/04/26 00:40:35;;;;;;;0.30;0.30;;;;;;;10.66;58.85;101971.16;5084050;28;20112;-70
2023/04/26 00:43:02;;;;;;;0.30;0.30;;;;;;;11.75;56.16;101963.75;5072232;28;20108;-70
2023/04/26 00:45:27;;;;;;;0.30;0.30;;;;;;;11.84;55.42;101959.81;5054402;28;20072;-72
2023/04/26 00:47:53;;;;;;;0.22;0.22;;;;;;;11.75;56.40;101966.44;5077576;28;20032;-71
2023/04/26 00:50:19;;;;;;;0.28;0.28;;;;;;;11.49;56.79;101964.50;5092095;28;20044;-71
2023/04/26 00:52:46;;;;;;;0.28;0.28;;;;;;;11.94;55.45;101954.84;5074077;28;20062;-71
2023/04/26 00:55:13;;;;;;;0.30;0.30;;;;;;;11.70;55.91;101954.59;5092295;28;20104;-71
2023/04/26 00:57:38;;;;;;;0.22;0.22;;;;;;;11.61;56.70;101959.34;5091789;28;20040;-70
2023/04/26 01:00:05;;;;;;;0.20;0.20;;;;;;;11.52;56.89;101952.47;5073412;28;20036;-70
2023/04/26 01:02:30;;;;;;;0.20;0.20;;;;;;;11.88;55.91;101952.97;5091786;28;20047;-71
2023/04/26 01:04:56;;;;;;;0.20;0.20;;;;;;;12.15;54.81;101954.63;5091740;28;20054;-72
2023/04/26 01:07:22;;;;;;;0.20;0.20;;;;;;;12.11;55.01;101945.28;5091770;28;20062;-70
2023/04/26 01:09:48;;;;;;;0.30;0.30;;;;;;;11.88;56.32;101934.13;5092092;28;20507;-71
2023/04/26 01:12:13;;;;;;;0.20;0.20;;;;;;;11.84;55.98;101942.81;5091779;28;20122;-72
2023/04/26 01:14:39;;;;;;;0.20;0.20;;;;;;;12.08;55.70;101943.03;5081365;28;20040;-70
2023/04/26 01:17:06;;;;;;;0.20;0.20;;;;;;;11.89;56.27;101940.34;5071307;28;20044;-71
2023/04/26 01:19:32;;;;;;;0.20;0.20;;;;;;;12.04;55.50;101947.16;5071426;28;20048;-72
2023/04/26 01:21:57;;;;;;;0.20;0.20;;;;;;;12.35;54.56;101944.66;5072018;28;20094;-70
2023/04/26 01:24:23;;;;;;;0.20;0.20;;;;;;;12.33;54.95;101951.28;5071453;28;20058;-71
2023/04/26 01:26:48;;;;;;;0.20;0.20;;;;;;;12.15;55.92;101953.78;5070896;28;20039;-71
2023/04/26 01:29:23;;;;;;;0.30;0.30;;;;;;;12.33;55.23;101957.50;5071248;28;20040;-71
2023/04/26 01:31:48;;;;;;;0.20;0.20;;;;;;;12.22;55.36;101955.47;5071596;28;20055;-71
2023/04/26 01:34:14;;;;;;;0.20;0.20;;;;;;;12.39;55.04;101955.84;5071193;28;20586;-70
2023/04/26 01:36:40;;;;;;;0.20;0.20;;;;;;;12.20;55.26;101960.22;5074896;28;20013;-72
2023/04/26 01:39:07;;;;;;;0.20;0.20;;;;;;;12.12;55.79;101956.91;5075383;28;20056;-70
2023/04/26 01:41:32;;;;;;;0.20;0.20;;;;;;;12.03;55.93;101958.97;5075206;28;20079;-71
2023/04/26 01:43:58;;;;;;;0.25;0.25;;;;;;;11.76;55.66;101957.31;5075291;28;20032;-70
2023/04/26 01:46:23;;;;;;;0.20;0.20;;;;;;;11.99;55.87;101948.84;5075418;28;20107;-71
2023/04/26 01:48:49;;;;;;;0.30;0.30;;;;;;;11.62;57.14;101946.69;5075990;28;20097;-70
2023/04/26 01:51:15;;;;;;;0.25;0.25;;;;;;;11.77;55.62;101948.22;5075162;28;20393;-70
2023/04/26 01:53:40;;;;;;;0.20;0.20;;;;;;;11.82;55.71;101955.66;5075041;28;20051;-70
2023/04/26 01:56:06;;;;;;;0.20;0.20;;;;;;;11.85;55.54;101947.97;5074729;28;20037;-72
2023/04/26 01:58:31;;;;;;;0.25;0.25;;;;;;;11.87;55.27;101950.50;5075665;28;20518;-71
2023/04/26 02:01:04;;;;;;;0.30;0.30;;;;;;;11.41;56.91;101945.84;5075770;28;20033;-72
2023/04/26 02:03:30;;;;;;;0.20;0.20;;;;;;;11.48;56.77;101948.53;5074957;28;20144;-71
2023/04/26 02:05:55;;;;;;;0.20;0.20;;;;;;;10.94;58.63;101947.72;5074844;28;20524;-71
2023/04/26 02:08:20;;;;;;;0.20;0.20;;;;;;;11.94;55.41;101952.16;5075135;28;20054;-71
2023/04/26 02:10:46;;;;;;;0.20;0.20;;;;;;;11.65;56.00;101952.50;5075077;28;20091;-70
2023/04/26 02:13:11;;;;;;;0.20;0.20;;;;;;;11.67;56.24;101950.47;5078135;28;20072;-71
2023/04/26 02:15:36;;;;;;;0.20;0.20;;;;;;;11.78;55.76;101944.47;5077837;28;20050;-71
2023/04/26 02:18:02;;;;;;;0.20;0.20;;;;;;;11.71;55.25;101943.63;5060249;28;20120;-71
2023/04/26 02:20:27;;;;;;;0.20;0.20;;;;;;;11.66;55.81;101947.97;5078165;28;20040;-72
2023/04/26 02:22:53;;;;;;;0.20;0.20;;;;;;;11.56;55.82;101939.44;5077925;28;20111;-71
2023/04/26 02:25:18;;;;;;;0.30;0.30;;;;;;;11.30;56.43;101941.03;5077014;28;20445;-71
2023/04/26 02:27:43;;;;;;;0.30;0.30;;;;;;;11.16;57.71;101943.91;5078016;28;20066;-72
2023/04/26 02:30:09;;;;;;;0.20;0.20;;;;;;;11.44;56.09;101947.25;5077377;28;20112;-72
2023/04/26 02:32:35;;;;;;;0.20;0.20;;;;;;;11.18;57.37;101944.53;5074603;28;20036;-72
2023/04/26 02:35:00;;;;;;;0.30;0.30;;;;;;;11.50;56.64;101949.97;5074530;28;20033;-72
2023/04/26 02:37:26;;;;;;;0.25;0.25;;;;;;;11.66;55.58;101942.56;5074592;28;20112;-72
2023/04/26 02:39:51;;;;;;;0.20;0.20;;;;;;;11.51;55.65;101942.75;5075116;28;20055;-71
2023/04/26 02:42:16;;;;;;;0.30;0.30;;;;;;;11.45;56.41;101948.94;5074466;28;20036;-72
2023/04/26 02:44:42;;;;;;;0.20;0.20;;;;;;;11.46;56.04;101940.66;5063336;28;20482;-70
2023/04/26 02:47:08;;;;;;;0.20;0.20;;;;;;;11.43;55.99;101942.94;5052924;28;20080;-70
2023/04/26 02:49:33;;;;;;;0.30;0.30;;;;;;;11.42;55.96;101936.72;5054295;28;20037;-70
2023/04/26 02:51:59;;;;;;;0.22;0.22;;;;;;;11.30;56.44;101932.94;5036275;28;20073;-72
2023/04/26 02:54:24;;;;;;;0.30;0.30;;;;;;;11.50;56.67;101939.22;5053855;28;20063;-73
2023/04/26 02:56:50;;;;;;;0.20;0.20;;;;;;;11.37;56.99;101935.66;5053681;28;20141;-73
2023/04/26 02:59:15;;;;;;;0.30;0.30;;;;;;;11.48;56.55;101946.66;5053989;28;20040;-70
2023/04/26 03:01:40;;;;;;;0.20;0.20;;;;;;;10.65;58.80;101937.25;5054043;28;20090;-70
2023/04/26 03:04:06;;;;;;;0.30;0.30;;;;;;;11.42;57.39;101947.47;5054254;28;20136;-71
2023/04/26 03:06:32;;;;;;;0.20;0.20;;;;;;;11.51;56.74;101948.13;5058404;28;20500;-70
2023/04/26 03:08:57;;;;;;;0.30;0.30;;;;;;;11.63;55.83;101953.72;5073879;28;20484;-70
2023/04/26 03:11:22;;;;;;;0.30;0.30;;;;;;;10.54;59.89;101966.34;5073515;28;20097;-71
2023/04/26 03:13:48;;;;;;;0.20;0.20;;;;;;;10.14;61.49;101964.41;5073626;28;20052;-71
2023/04/26 03:16:13;;;;;;;0.40;0.40;;;;;;;9.55;64.16;101954.97;5074073;28;20024;-71
2023/04/26 03:18:38;;;;;;;0.38;0.38;;;;;;;10.30;61.28;101953.38;5074354;28;20028;-72
2023/04/26 03:21:04;;;;;;;0.40;0.40;;;;;;;9.94;61.97;101943.75;5073881;28;20064;-72
2023/04/26 03:23:29;;;;;;;0.30;0.30;;;;;;;10.59;60.13;101931.63;5074211;28;20036;-70
2023/04/26 03:25:55;;;;;;;0.40;0.40;;;;;;;10.88;58.93;101932.41;5073485;28;20039;-70
2023/04/26 03:28:20;;;;;;;0.40;0.40;;;;;;;10.39;61.05;101938.78;5073706;28;20124;-72
2023/04/26 03:30:48;;;;;;;0.40;0.40;;;;;;;10.56;60.30;101934.72;5074173;28;20103;-71
2023/04/26 03:33:14;;;;;;;0.40;0.40;;;;;;;10.83;59.48;101929.50;5074210;28;20033;-71
2023/04/26 03:35:39;;;;;;;0.30;0.30;;;;;;;10.63;59.92;101925.88;5074035;28;20048;-70
2023/04/26 03:38:04;;;;;;;0.30;0.30;;;;;;;10.74;60.07;101923.44;5073792;28;20562;-72
2023/04/26 03:40:30;;;;;;;0.38;0.38;;;;;;;10.77;60.29;101928.41;5073571;28;20048;-70
2023/04/26 03:42:56;;;;;;;0.40;0.40;;;;;;;10.98;59.42;101931.00;5074350;28;20028;-72
2023/04/26 03:45:21;;;;;;;0.38;0.38;;;;;;;9.71;62.17;101930.53;5073574;28;20119;-71
2023/04/26 03:47:46;;;;;;;0.30;0.30;;;;;;;10.05;62.55;101922.56;5073566;28;20087;-70
2023/04/26 03:50:12;;;;;;;0.40;0.40;;;;;;;10.00;62.05;101925.03;5076989;28;20182;-71
2023/04/26 03:52:37;;;;;;;0.50;0.50;;;;;;;10.10;62.00;101927.41;5077812;28;20735;-72
2023/04/26 03:55:03;;;;;;;0.30;0.30;;;;;;;10.38;60.85;101929.03;5078247;28;20111;-73
2023/04/26 03:57:28;;;;;;;0.40;0.40;;;;;;;10.78;58.89;101921.19;5076086;28;20037;-70
2023/04/26 03:59:53;;;;;;;0.40;0.40;;;;;;;9.86;62.61;101927.78;5077624;28;20140;-72
2023/04/26 04:02:19;;;;;;;0.50;0.50;;;;;;;10.45;60.60;101929.91;5076552;28;20059;-73
2023/04/26 04:04:45;;;;;;;0.40;0.40;;;;;;;10.81;60.09;101924.28;5052007;28;20025;-72
2023/04/26 04:07:10;;;;;;;0.50;0.50;;;;;;;10.51;60.60;101925.59;5057271;28;20032;-72
2023/04/26 04:09:35;;;;;;;0.50;0.50;;;;;;;10.63;60.22;101924.81;5069535;28;20036;-71
2023/04/26 04:12:01;;;;;;;0.50;0.50;;;;;;;9.94;61.99;101930.34;5074747;28;20118;-70
2023/04/26 04:14:27;;;;;;;0.40;0.40;;;;;;;10.57;60.01;101928.31;5073058;28;20041;-72
2023/04/26 04:16:52;;;;;;;0.40;0.40;;;;;;;10.64;60.65;101925.66;5073462;28;20077;-72
2023/04/26 04:19:17;;;;;;;0.40;0.40;;;;;;;11.22;57.70;101930.44;5073225;28;20407;-71
2023/04/26 04:21:44;;;;;;;0.40;0.40;;;;;;;10.56;59.88;101921.28;5073679;28;20059;-70
2023/04/26 04:24:10;;;;;;;0.40;0.40;;;;;;;11.18;58.60;101933.75;5072956;28;20037;-71
2023/04/26 04:26:36;;;;;;;0.38;0.38;;;;;;;11.16;59.09;101933.13;5072119;28;20090;-70
2023/04/26 04:29:07;;;;;;;0.40;0.40;;;;;;;10.65;60.61;101935.41;5072808;28;20048;-70
2023/04/26 04:31:33;;;;;;;0.40;0.40;;;;;;;10.70;60.52;101932.94;5072416;28;20098;-71
2023/04/26 04:33:58;;;;;;;0.43;0.43;;;;;;;10.51;60.49;101936.34;5070307;28;20024;-71
2023/04/26 04:36:25;;;;;;;0.40;0.40;;;;;;;11.13;58.90;101937.06;5065630;28;20135;-71
2023/04/26 04:38:52;;;;;;;0.40;0.40;;;;;;;11.13;59.43;101941.59;5066968;28;20051;-71
2023/04/26 04:41:19;;;;;;;0.40;0.40;;;;;;;10.77;60.58;101946.41;5065082;28;20044;-72
2023/04/26 04:43:44;;;;;;;0.40;0.40;;;;;;;11.26;59.51;101947.84;5065364;28;20078;-72
2023/04/26 04:46:09;;;;;;;0.38;0.38;;;;;;;11.28;59.21;101942.28;5066345;28;20021;-71
2023/04/26 04:48:37;;;;;;;0.40;0.40;;;;;;;10.90;60.04;101946.47;5063190;28;20040;-72
2023/04/26 04:51:02;;;;;;;0.50;0.50;;;;;;;10.94;60.54;101937.81;5063353;28;20033;-70
2023/04/26 04:53:28;;;;;;;0.55;0.55;;;;;;;11.70;57.97;101947.34;5066084;28;20506;-70
2023/04/26 04:55:53;;;;;;;0.30;0.30;;;;;;;11.54;58.06;101950.41;5063334;28;20044;-72
2023/04/26 04:58:18;;;;;;;0.40;0.40;;;;;;;11.59;57.52;101949.78;5065022;28;20081;-70
2023/04/26 05:00:45;;;;;;;0.30;0.30;;;;;;;11.88;56.88;101952.13;5065869;28;20111;-70
2023/04/26 05:03:13;;;;;;;0.38;0.38;;;;;;;10.93;59.28;101949.59;5065515;28;20054;-70
2023/04/26 05:05:38;;;;;;;0.30;0.30;;;;;;;10.92;59.49;101953.31;5065177;28;20109;-71
2023/04/26 05:08:06;;;;;;;0.40;0.40;;;;;;;11.25;58.43;101951.59;5064575;28;20040;-71
2023/04/26 05:10:32;;;;;;;0.35;0.35;;;;;;;11.74;57.59;101953.16;5045445;28;20129;-70
2023/04/26 05:12:58;;;;;;;0.40;0.40;;;;;;;11.61;58.06;101951.25;5047501;28;20032;-70
2023/04/26 05:15:23;;;;;;;0.30;0.30;;;;;;;11.47;57.90;101952.25;5063130;28;20450;-70
2023/04/26 05:17:49;;;;;;;0.43;0.43;;;;;;;11.05;59.34;101955.22;5046918;28;20528;-70
2023/04/26 05:20:17;;;;;;;0.43;0.43;;;;;;;11.10;58.90;101947.38;5062829;28;20062;-71
2023/04/26 05:22:43;;;;;;;0.45;0.45;;;;;;;11.43;58.18;101953.69;5062790;28;20033;-72
2023/04/26 05:25:09;;;;;;;0.45;0.45;;;;;;;11.39;57.98;101953.28;5066882;28;20028;-70
2023/04/26 05:27:36;;;;;;;0.50;0.50;;;;;;;10.85;58.55;101954.31;5068583;28;20049;-70
2023/04/26 05:30:03;;;;;;;0.45;0.45;;;;;;;10.91;60.13;101966.97;5068818;28;20517;-71
2023/04/26 05:32:28;;;;;;;0.30;0.30;;;;;;;11.27;58.72;101962.97;5070964;28;20500;-70
2023/04/26 05:34:53;;;;;;;0.50;0.50;;;;;;;10.74;60.18;101958.41;5088325;28;20075;-71
2023/04/26 05:37:19;;;;;;;0.40;0.40;;;;;;;10.68;60.70;101971.78;5070971;28;20040;-71
2023/04/26 05:39:44;;;;;;;0.40;0.40;;;;;;;10.71;60.83;101966.03;5081627;28;20099;-70
2023/04/26 05:42:09;;;;;;;0.40;0.40;;;;;;;11.35;59.60;101961.94;5077783;28;20460;-72
2023/04/26 05:44:35;;;;;;;0.40;0.40;;;;;;;11.53;58.15;101972.97;5052205;28;20129;-71
2023/04/26 05:47:00;;;;;;;0.40;0.40;;;;;;;10.55;60.93;101972.56;5054545;28;20676;-70
2023/04/26 05:49:26;;;;;;;0.45;0.45;;;;;;;10.13;62.93;101976.19;5078206;28;20031;-71
2023/04/26 05:51:51;;;;;;;0.40;0.40;;;;;;;10.72;61.75;101973.91;5063231;28;20031;-70
2023/04/26 05:54:16;;;;;;;0.40;0.40;;;;;;;11.38;59.05;101983.91;5085297;28;20145;-70
2023/04/26 05:56:42;;;;;;;0.55;0.55;;;;;;;11.28;59.41;101977.25;5073171;28;20071;-70
2023/04/26 05:59:07;;;;;;;0.30;0.30;;;;;;;11.52;58.22;101973.19;5057454;28;20067;-71
2023/04/26 06:01:33;;;;;;;0.40;0.40;;;;;;;11.72;57.75;101980.28;5082809;28;20047;-71
2023/04/26 06:03:58;;;;;;;0.50;0.50;;;;;;;11.58;58.36;101977.75;5082420;28;20044;-71
2023/04/26 06:06:24;;;;;;;0.40;0.40;;;;;;;12.23;56.63;101984.06;5074654;28;20128;-70
2023/04/26 06:08:50;;;;;;;0.40;0.40;;;;;;;12.44;55.76;101979.47;5064392;28;20044;-70
2023/04/26 06:11:15;;;;;;;0.30;0.30;;;;;;;12.41;56.50;101978.03;5065247;28;20138;-71
2023/04/26 06:13:41;;;;;;;0.30;0.30;;;;;;;12.59;55.78;101980.91;5067195;28;20415;-70
2023/04/26 06:16:06;;;;;;;0.40;0.40;;;;;;;12.19;56.53;101992.75;5070402;28;20510;-70
2023/04/26 06:18:31;;;;;;;0.40;0.40;;;;;;;11.13;60.11;101996.22;5069542;28;20496;-69
2023/04/26 06:20:57;;;;;;;0.40;0.40;;;;;;;10.72;62.83;102000.78;5073072;28;20155;-70
2023/04/26 06:23:22;;;;;;;0.40;0.40;;;;;;;11.44;59.08;102001.94;5087245;28;20063;-71
2023/04/26 06:25:47;;;;;;;0.47;0.47;;;;;;;11.86;56.69;101997.28;5083436;28;20464;-70
2023/04/26 06:28:13;;;;;;;0.30;0.30;;;;;;;12.08;57.16;102006.84;5080464;28;20119;-71
2023/04/26 06:30:39;;;;;;;0.30;0.30;;;;;;;11.98;58.74;102001.03;5090192;28;20621;-71
2023/04/26 06:33:04;;;;;;;0.40;0.40;;;;;;;12.47;57.49;102009.53;5077207;28;20036;-71
2023/04/26 06:35:30;;;;;;;0.30;0.30;;;;;;;12.87;55.34;102007.59;5085990;28;20040;-71
2023/04/26 06:37:55;;;;;;;0.40;0.40;;;;;;;11.84;57.33;102012.81;5073023;28;20032;-69
2023/04/26 06:40:21;;;;;;;0.40;0.40;;;;;;;11.58;59.37;102018.94;5088112;28;20035;-69
2023/04/26 06:42:46;;;;;;;0.30;0.30;;;;;;;10.79;61.66;102023.13;5077197;28;20048;-72
2023/04/26 06:45:11;;;;;;;0.40;0.40;;;;;;;11.46;60.13;102020.56;5059556;28;20036;-72
2023/04/26 06:47:37;;;;;;;0.30;0.30;;;;;;;11.36;61.17;102025.53;5081263;28;20028;-72
2023/04/26 06:50:03;;;;;;;0.30;0.30;;;;;;;11.69;59.44;102026.50;5080524;28;20033;-70
2023/04/26 06:52:29;;;;;;;0.20;0.20;;;;;;;11.89;57.95;102031.91;5075672;28;20174;-69
2023/04/26 06:54:55;;;;;;;0.30;0.30;;;;;;;11.35;59.93;102030.06;5055400;28;20127;-71
2023/04/26 06:57:20;;;;;;;0.30;0.30;;;;;;;12.75;55.87;102023.63;5082177;28;20354;-70
2023/04/26 06:59:45;;;;;;;0.38;0.38;;;;;;;13.14;54.94;102020.84;5073212;28;20039;-71
2023/04/26 07:02:11;;;;;;;0.40;0.40;;;;;;;13.26;53.75;102018.28;5086432;28;20032;-71
2023/04/26 07:04:36;;;;;;;0.40;0.40;;;;;;;13.54;52.82;102010.66;5076669;28;20035;-71
2023/04/26 07:07:02;;;;;;;0.30;0.30;;;;;;;13.80;53.09;102012.38;5090336;28;20119;-70
2023/04/26 07:09:27;;;;;;;0.20;0.20;;;;;;;14.01;52.33;102012.06;5080474;28;20044;-71
2023/04/26 07:11:52;;;;;;;0.30;0.30;;;;;;;13.77;53.09;102005.56;5082657;28;20121;-71
2023/04/26 07:14:18;;;;;;;0.30;0.30;;;;;;;14.39;53.27;102006.53;5087313;28;20044;-70
2023/04/26 07:16:43;;;;;;;0.47;0.47;;;;;;;14.07;51.78;102005.78;5083461;28;20042;-70
2023/04/26 07:19:09;;;;;;;0.28;0.28;;;;;;;13.95;51.88;102004.81;5069318;28;20064;-70
2023/04/26 07:21:35;;;;;;;0.30;0.30;;;;;;;14.44;51.44;102012.97;5065888;28;20040;-70
2023/04/26 07:24:02;;;;;;;0.60;0.60;;;;;;;14.31;50.78;102013.06;5066206;28;20045;-69
2023/04/26 07:26:27;;;;;;;0.30;0.30;;;;;;;13.80;52.27;102006.97;5067556;28;20085;-69
2023/04/26 07:28:53;;;;;;;0.38;0.38;;;;;;;14.42;50.16;102009.66;5067335;28;20079;-70
2023/04/26 07:31:18;;;;;;;0.40;0.40;;;;;;;14.72;48.86;102016.00;5067813;28;20028;-70
2023/04/26 07:33:44;;;;;;;0.30;0.30;;;;;;;14.47;49.80;102008.97;5049824;28;20045;-69
2023/04/26 07:36:09;;;;;;;0.40;0.40;;;;;;;13.89;50.47;102016.50;5067935;28;20488;-69
2023/04/26 07:38:35;;;;;;;0.30;0.30;;;;;;;13.75;49.53;102010.34;5066603;28;20040;-69
2023/04/26 07:41:00;;;;;;;0.20;0.20;;;;;;;14.38;49.45;102011.16;5066703;28;20101;-69
2023/04/26 07:43:26;;;;;;;0.32;0.32;;;;;;;13.79;50.19;102008.88;5067304;28;20028;-69
2023/04/26 07:45:52;;;;;;;0.40;0.40;;;;;;;13.82;49.65;102013.00;5065831;28;20052;-71
2023/04/26 07:48:18;;;;;;;0.30;0.30;;;;;;;14.03;48.68;102012.66;5047943;28;20056;-69
2023/04/26 07:50:43;;;;;;;0.40;0.40;;;;;;;14.29;48.42;102014.34;5066575;28;20082;-70
2023/04/26 07:53:08;;;;;;;0.30;0.30;;;;;;;14.41;48.66;102016.09;5048181;28;20039;-69
2023/04/26 07:55:35;;;;;;;0.30;0.30;;;;;;;14.27;49.24;102019.94;5066159;28;20646;-70
2023/04/26 07:58:00;;;;;;;0.20;0.20;;;;;;;13.96;49.25;102022.66;5072410;28;20024;-70
2023/04/26 08:00:25;;;;;;;0.25;0.25;;;;;;;14.32;47.78;102027.44;5053854;28;20047;-70
2023/04/26 08:02:51;;;;;;;0.20;0.20;;;;;;;13.64;49.31;102023.72;5072334;28;20043;-70
2023/04/26 08:05:16;;;;;;;0.40;0.40;;;;;;;13.62;51.74;102031.22;5077942;28;20127;-70
2023/04/26 08:07:42;;;;;;;0.30;0.30;;;;;;;12.93;53.66;102039.13;5083109;28;20033;-70
2023/04/26 08:10:09;;;;;;;0.32;0.32;;;;;;;12.42;57.61;102054.34;5085277;28;20105;-70
2023/04/26 08:12:35;;;;;;;0.40;0.40;;;;;;;11.94;58.45;102050.97;5075483;28;20075;-70
2023/04/26 08:15:03;;;;;;;0.30;0.30;;;;;;;11.23;59.72;102049.66;5056272;28;20492;-70
2023/04/26 08:17:28;;;;;;;0.40;0.40;;;;;;;11.78;59.84;102049.50;5083566;28;20078;-71
2023/04/26 08:19:54;;;;;;;0.40;0.40;;;;;;;12.89;56.60;102048.69;5097592;28;20139;-71
2023/04/26 08:22:19;;;;;;;0.30;0.30;;;;;;;13.14;54.18;102041.59;5062771;28;20455;-70
2023/04/26 08:24:54;;;;;;;0.50;0.50;;;;;;;13.54;55.99;102037.66;5073615;28;20444;-71
2023/04/26 08:27:21;;;;;;;0.28;0.28;;;;;;;13.98;52.85;102039.50;5072406;28;20056;-71
2023/04/26 08:29:46;;;;;;;0.25;0.25;;;;;;;13.96;52.87;102037.03;5070760;28;20078;-71
2023/04/26 08:32:12;;;;;;;0.35;0.35;;;;;;;14.02;53.06;102044.25;5073982;28;20035;-72
2023/04/26 08:34:37;;;;;;;0.40;0.40;;;;;;;14.11;52.02;102039.44;5070843;28;20033;-72
2023/04/26 08:37:03;;;;;;;0.30;0.30;;;;;;;13.83;53.87;102033.56;5073088;28;20025;-72
2023/04/26 08:39:28;;;;;;;0.30;0.30;;;;;;;14.07;54.46;102032.81;5068051;28;20071;-71
2023/04/26 08:41:56;;;;;;;0.40;0.40;;;;;;;13.91;54.79;102039.56;5069490;28;20131;-69
2023/04/26 08:44:23;;;;;;;0.30;0.30;;;;;;;14.24;52.30;102038.47;5077747;28;20029;-70
2023/04/26 08:47:16;;;;;;;0.40;0.40;;;;;;;14.59;49.73;102036.97;5071542;28;20037;-72
2023/04/26 08:49:51;;;;;;;0.40;0.40;;;;;;;14.66;51.88;102037.75;5080756;28;20054;-71
2023/04/26 08:52:21;;;;;;;0.30;0.30;;;;;;;14.41;52.30;102040.44;5077906;28;20029;-71
2023/04/26 08:54:49;;;;;;;0.20;0.20;;;;;;;14.73;52.76;102033.91;5073945;28;20104;-72
2023/04/26 08:57:15;;;;;;;0.30;0.30;;;;;;;14.61;52.25;102035.69;5085895;28;20059;-72
2023/04/26 08:59:42;;;;;;;0.30;0.30;;;;;;;14.45;53.27;102038.13;5071594;28;20058;-72
2023/04/26 09:02:09;;;;;;;0.50;0.50;;;;;;;14.69;51.92;102038.13;5066701;28;20032;-73
2023/04/26 09:04:36;;;;;;;0.38;0.38;;;;;;;14.76;51.36;102033.44;5091350;28;20040;-72
2023/04/26 09:07:03;;;;;;;0.60;0.60;;;;;;;14.63;50.47;102032.75;5055262;28;20012;-73
2023/04/26 09:09:41;;;;;;;0.20;0.20;;;;;;;14.63;51.71;102036.31;5078245;28;20036;-73
2023/04/26 09:12:07;;;;;;;0.50;0.50;;;;;;;14.43;54.32;102040.22;5078541;28;20131;-72
2023/04/26 09:14:32;;;;;;;0.30;0.30;;;;;;;14.84;52.38;102035.03;5087335;28;20461;-71
2023/04/26 09:16:58;;;;;;;0.50;0.50;;;;;;;14.81;50.84;102024.66;5074246;28;20059;-73
2023/04/26 09:19:35;;;;;;;0.40;0.40;;;;;;;15.28;51.15;102028.50;5090012;28;20042;-73
2023/04/26 09:22:01;;;;;;;0.25;0.25;;;;;;;15.05;50.82;102037.31;5060312;28;20564;-73
2023/04/26 09:24:27;;;;;;;0.20;0.20;;;;;;;15.76;50.07;102023.94;5085472;28;20044;-72
2023/04/26 09:27:04;;;;;;;0.30;0.30;;;;;;;15.27;48.71;102022.25;5073364;28;20041;-73
2023/04/26 09:29:30;;;;;;;0.20;0.20;;;;;;;15.22;47.81;102022.13;5082653;28;20047;-72
2023/04/26 09:31:57;;;;;;;0.20;0.20;;;;;;;15.44;47.97;102020.63;5081080;28;20403;-73
2023/04/26 09:34:23;;;;;;;0.30;0.30;;;;;;;14.48;49.92;102019.59;5072015;28;20456;-70
2023/04/26 09:36:55;;;;;;;0.40;0.40;;;;;;;15.37;50.29;102017.13;5086915;28;20099;-72
2023/04/26 09:39:31;;;;;;;0.20;0.20;;;;;;;14.98;46.99;102028.44;5076010;28;20052;-72
2023/04/26 09:41:57;;;;;;;0.30;0.30;;;;;;;15.15;46.79;102025.97;5071413;28;20143;-72
2023/04/26 09:44:24;;;;;;;0.40;0.40;;;;;;;14.32;47.10;102030.13;5075779;28;20492;-72
2023/04/26 09:47:10;;;;;;;0.30;0.30;;;;;;;14.93;46.91;102022.88;5070210;28;20098;-73
2023/04/26 09:49:47;;;;;;;0.30;0.30;;;;;;;14.50;46.50;102013.97;5078276;28;20059;-73
2023/04/26 09:52:12;;;;;;;0.30;0.30;;;;;;;14.30;45.27;102018.72;5067576;28;20334;-72
2023/04/26 09:54:39;;;;;;;0.20;0.20;;;;;;;14.47;46.70;102017.94;5069408;28;20041;-73
2023/04/26 09:57:05;;;;;;;0.20;0.20;;;;;;;14.46;46.53;102020.84;5071387;28;20040;-73
2023/04/26 09:59:40;;;;;;;0.30;0.30;;;;;;;14.23;48.79;102018.72;5073051;28;20040;-71
2023/04/26 10:02:25;;;;;;;0.50;0.50;;;;;;;14.45;48.27;102020.03;5073479;28;20043;-73
2023/04/26 10:04:53;;;;;;;0.20;0.20;;;;;;;14.15;48.02;102018.19;5072634;28;20040;-71
2023/04/26 10:07:21;;;;;;;0.20;0.20;;;;;;;14.58;48.28;102019.91;5071089;28;20012;-71
2023/04/26 10:09:48;;;;;;;0.30;0.30;;;;;;;14.13;48.32;102014.88;5073686;28;20501;-70
2023/04/26 10:12:18;;;;;;;0.30;0.30;;;;;;;14.82;46.83;102023.59;5072763;28;20447;-72
2023/04/26 10:14:45;;;;;;;0.22;0.22;;;;;;;14.64;47.23;102020.91;5072903;28;20037;-73
2023/04/26 10:17:11;;;;;;;0.20;0.20;;;;;;;15.28;46.45;102012.25;5070356;28;20048;-73
2023/04/26 10:19:38;;;;;;;0.25;0.25;;;;;;;14.38;46.62;102018.44;5072623;28;20052;-73
2023/04/26 10:22:22;;;;;;;0.30;0.30;;;;;;;14.92;47.17;102015.78;5073664;28;20480;-74
2023/04/26 10:24:48;;;;;;;0.30;0.30;;;;;;;13.48;49.82;102021.53;5073107;28;20108;-74
2023/04/26 10:27:15;;;;;;;0.30;0.30;;;;;;;15.00;45.43;102012.78;5054712;28;20036;-73
2023/04/26 10:30:06;;;;;;;0.20;0.20;;;;;;;14.73;45.92;102004.16;5072515;28;20129;-72
2023/04/26 10:32:31;;;;;;;0.20;0.20;;;;;;;13.25;48.13;102010.41;5071405;28;20033;-72
2023/04/26 10:35:11;;;;;;;0.30;0.30;;;;;;;14.62;47.21;102009.47;5073445;28;20127;-71
2023/04/26 10:37:59;;;;;;;0.37;0.37;;;;;;;15.40;43.30;102010.44;5069676;28;20127;-72
2023/04/26 10:40:31;;;;;;;0.28;0.28;;;;;;;15.58;42.89;102005.03;5071032;28;20437;-72
2023/04/26 10:43:12;;;;;;;0.32;0.32;;;;;;;15.60;41.07;102011.03;5069974;28;20245;-73
2023/04/26 10:45:38;;;;;;;0.20;0.20;;;;;;;15.88;40.68;102010.44;5070798;28;20058;-72
2023/04/26 10:48:18;;;;;;;0.30;0.30;;;;;;;14.26;44.13;102009.34;5070482;28;20039;-72
2023/04/26 10:51:04;;;;;;;0.30;0.30;;;;;;;15.53;40.39;102011.13;5070360;28;20044;-73
2023/04/26 10:53:52;;;;;;;0.30;0.30;;;;;;;15.95;40.56;102006.56;5073965;28;20102;-72
2023/04/26 10:56:26;;;;;;;0.20;0.20;;;;;;;15.55;41.49;102014.44;5064231;28;20080;-73
2023/04/26 10:59:08;;;;;;;0.20;0.20;;;;;;;15.71;42.29;102002.94;5071550;28;20064;-72
2023/04/26 11:01:34;;;;;;;0.30;0.30;;;;;;;15.65;42.14;102000.31;5071872;28;20141;-73
2023/04/26 11:04:00;;;;;;;0.40;0.40;;;;;;;16.50;38.37;101994.41;5072611;28;20078;-72
2023/04/26 11:06:25;;;;;;;0.20;0.20;;;;;;;15.99;38.91;101996.91;5071923;28;20032;-72
2023/04/26 11:08:52;;;;;;;0.30;0.30;;;;;;;15.37;39.85;102009.00;5070768;28;20133;-71
2023/04/26 11:11:21;;;;;;;0.20;0.20;;;;;;;15.73;38.78;102002.72;5071845;28;20032;-71
2023/04/26 11:13:46;;;;;;;0.30;0.28;;;;;;;16.30;39.08;101999.31;5054198;28;20102;-73
2023/04/26 11:16:13;;;;;;;0.17;0.17;;;;;;;14.60;39.02;102006.97;5071709;28;20028;-72
2023/04/26 11:18:43;;;;;;;0.30;0.30;;;;;;;15.82;38.83;102004.84;5053509;28;20515;-73
2023/04/26 11:21:10;;;;;;;0.30;0.30;;;;;;;15.10;39.64;101999.56;5071446;28;20044;-73
2023/04/26 11:23:35;;;;;;;0.30;0.30;;;;;;;14.37;41.26;102000.56;5065805;28;20403;-72
2023/04/26 11:26:05;;;;;;;0.40;0.40;;;;;;;14.10;42.84;102005.31;5070415;28;20043;-73